Time;durP1;ratioP1;P1;durP2;ratioP2;P2;SDS_P1;SDS_P2;PMS_P1;PMS_P2;Temp;Humidity;BMP_temperature;BMP_pressure;BME280_temperature;BME280_humidity;BME280_pressure;Samples;Min_cycle;Max_cycle;Signal;HPM_P1;HPM_P2
2021/04/23 00:00:55;;;;;;;0.60;0.60;;;;;;;6.17;46.20;97588.38;29990;204;6000;-56
2021/04/23 00:01:26;;;;;;;0.60;0.60;;;;;;;6.19;46.39;97586.28;29990;229;6000;-55
2021/04/23 00:01:56;;;;;;;0.60;0.60;;;;;;;6.19;46.27;97580.88;29990;275;6005;-56
2021/04/23 00:02:27;;;;;;;0.60;0.60;;;;;;;6.16;46.20;97582.19;29990;222;6000;-54
2021/04/23 00:03:04;;;;;;;0.60;0.60;;;;;;;6.20;46.27;97582.50;29990;246;6004;-56
2021/04/23 00:04:02;;;;;;;0.60;0.60;;;;;;;6.21;46.40;97586.84;29990;204;6000;-55
2021/04/23 00:04:33;;;;;;;0.60;0.60;;;;;;;6.21;45.92;97590.34;29989;231;6004;-57
2021/04/23 00:05:05;;;;;;;0.60;0.60;;;;;;;6.23;45.90;97582.00;29990;222;6000;-55
2021/04/23 00:05:36;;;;;;;0.60;0.60;;;;;;;6.25;46.14;97586.06;29990;206;6004;-55
2021/04/23 00:06:21;;;;;;;0.60;0.60;;;;;;;6.23;45.87;97577.44;29990;199;6000;-56
2021/04/23 00:06:57;;;;;;;0.60;0.60;;;;;;;6.25;45.81;97586.06;29991;239;6004;-55
2021/04/23 00:07:27;;;;;;;0.60;0.60;;;;;;;6.25;45.93;97582.56;29991;227;6000;-56
2021/04/23 00:07:58;;;;;;;0.60;0.60;;;;;;;6.24;45.83;97584.44;29991;216;6005;-55
2021/04/23 00:08:29;;;;;;;0.60;0.60;;;;;;;6.24;45.66;97589.00;29990;340;6000;-55
2021/04/23 00:09:21;;;;;;;0.60;0.60;;;;;;;6.24;45.47;97586.31;29991;252;6008;-55
2021/04/23 00:09:54;;;;;;;0.60;0.60;;;;;;;6.23;45.60;97577.44;29991;207;6000;-54
2021/04/23 00:10:26;;;;;;;0.60;0.60;;;;;;;6.22;45.45;97583.91;29991;283;6005;-57
2021/04/23 00:11:03;;;;;;;0.60;0.60;;;;;;;6.25;45.32;97587.94;29991;227;6000;-55
2021/04/23 00:11:42;;;;;;;0.60;0.60;;;;;;;6.21;45.25;97578.75;29990;229;6004;-55
2021/04/23 00:12:15;;;;;;;0.60;0.60;;;;;;;6.23;45.32;97590.91;29991;210;6000;-56
2021/04/23 00:12:48;;;;;;;0.60;0.60;;;;;;;6.24;45.42;97583.63;29991;207;6004;-57
2021/04/23 00:13:20;;;;;;;0.60;0.60;;;;;;;6.25;45.23;97585.25;29991;247;6000;-55
2021/04/23 00:13:51;;;;;;;0.60;0.60;;;;;;;6.25;45.24;97590.63;29991;220;6004;-55
2021/04/23 00:14:29;;;;;;;0.60;0.60;;;;;;;6.25;45.03;97590.63;29990;203;6000;-56
2021/04/23 00:15:07;;;;;;;0.70;0.70;;;;;;;6.21;45.33;97587.66;29991;196;6004;-55
2021/04/23 00:15:38;;;;;;;0.60;0.60;;;;;;;6.21;45.53;97587.66;29991;268;6000;-54
2021/04/23 00:16:10;;;;;;;0.60;0.60;;;;;;;6.21;45.53;97595.75;29991;211;6005;-56
2021/04/23 00:16:44;;;;;;;0.60;0.60;;;;;;;6.19;45.39;97592.47;29991;198;6000;-57
2021/04/23 00:17:15;;;;;;;0.60;0.60;;;;;;;6.18;45.92;97598.09;29991;197;6005;-55
2021/04/23 00:17:47;;;;;;;0.60;0.60;;;;;;;6.18;45.86;97590.03;29990;218;6000;-55
2021/04/23 00:18:18;;;;;;;0.60;0.60;;;;;;;6.18;45.96;97592.72;29991;219;6004;-55
2021/04/23 00:18:49;;;;;;;0.60;0.60;;;;;;;6.17;45.77;97593.78;29991;288;6000;-56
2021/04/23 00:19:23;;;;;;;0.60;0.60;;;;;;;6.17;45.90;97594.59;29991;228;6004;-56
2021/04/23 00:19:54;;;;;;;0.60;0.60;;;;;;;6.15;45.81;97590.50;29991;225;6000;-57
2021/04/23 00:20:28;;;;;;;0.52;0.52;;;;;;;6.15;46.00;97596.72;29990;205;6004;-57
2021/04/23 00:21:02;;;;;;;0.60;0.60;;;;;;;6.13;46.11;97598.03;29991;235;6000;-55
2021/04/23 00:21:33;;;;;;;0.60;0.60;;;;;;;6.13;46.23;97600.72;29991;222;6004;-56
2021/04/23 00:22:06;;;;;;;0.60;0.60;;;;;;;6.12;46.20;97597.22;29991;327;6000;-56
2021/04/23 00:22:36;;;;;;;0.60;0.60;;;;;;;6.11;46.10;97597.47;29991;228;6004;-57
2021/04/23 00:23:09;;;;;;;0.60;0.60;;;;;;;6.12;46.13;97596.41;29991;210;6000;-57
2021/04/23 00:23:40;;;;;;;0.60;0.60;;;;;;;6.12;46.26;97601.78;29991;269;6005;-56
2021/04/23 00:24:11;;;;;;;0.60;0.60;;;;;;;6.11;46.15;97600.16;29991;381;6000;-56
2021/04/23 00:24:42;;;;;;;2.10;2.05;;;;;;;6.12;45.96;97599.09;29991;260;6005;-56
2021/04/23 00:25:13;;;;;;;0.60;0.60;;;;;;;6.10;45.97;97599.34;29990;202;6000;-56
2021/04/23 00:25:45;;;;;;;0.60;0.60;;;;;;;6.09;46.23;97596.88;29991;200;6004;-59
2021/04/23 00:26:16;;;;;;;0.60;0.60;;;;;;;6.04;46.32;97593.06;29991;367;6007;-58
2021/04/23 00:26:47;;;;;;;0.60;0.60;;;;;;;6.05;46.31;97597.38;29991;295;6004;-58
2021/04/23 00:27:18;;;;;;;0.60;0.60;;;;;;;6.04;46.34;97595.75;29991;197;6009;-56
2021/04/23 00:27:49;;;;;;;0.60;0.60;;;;;;;6.02;46.49;97597.88;29991;235;6004;-56
2021/04/23 00:28:19;;;;;;;0.60;0.60;;;;;;;6.00;46.62;97597.28;29991;240;6000;-56
2021/04/23 00:28:50;;;;;;;0.60;0.60;;;;;;;6.01;46.43;97600.81;29990;234;6004;-56
2021/04/23 00:29:21;;;;;;;0.60;0.60;;;;;;;5.99;46.68;97592.97;29991;291;6000;-56
2021/04/23 00:29:52;;;;;;;0.60;0.60;;;;;;;5.99;46.69;97594.84;29991;241;6004;-55
2021/04/23 00:30:29;;;;;;;0.60;0.60;;;;;;;5.97;46.53;97597.78;29990;268;6000;-55
2021/04/23 00:31:02;;;;;;;0.60;0.60;;;;;;;5.95;46.70;97591.00;29991;337;6005;-55
2021/04/23 00:31:34;;;;;;;0.60;0.60;;;;;;;5.93;46.67;97593.94;29991;223;6000;-56
2021/04/23 00:32:55;;;;;;;0.60;0.60;;;;;;;5.90;47.11;97593.63;29991;263;6000;-56
2021/04/23 00:33:26;;;;;;;0.60;0.60;;;;;;;5.88;47.19;97596.56;29991;198;6004;-55
2021/04/23 00:33:57;;;;;;;0.60;0.60;;;;;;;5.87;47.09;97594.09;29990;249;6000;-56
2021/04/23 00:34:28;;;;;;;0.60;0.60;;;;;;;5.85;47.22;97598.94;29990;369;6004;-56
2021/04/23 00:34:58;;;;;;;0.60;0.60;;;;;;;5.83;47.51;97599.16;29991;266;6000;-55
2021/04/23 00:35:32;;;;;;;0.60;0.60;;;;;;;5.81;48.17;97601.28;29990;228;6004;-55
2021/04/23 00:36:06;;;;;;;0.60;0.60;;;;;;;5.78;47.96;97598.25;29990;202;6000;-56
2021/04/23 00:36:40;;;;;;;0.60;0.60;;;;;;;5.77;48.88;97604.72;29991;289;6004;-55
2021/04/23 00:37:10;;;;;;;0.60;0.60;;;;;;;5.71;49.55;97604.62;29991;323;6000;-56
2021/04/23 00:37:46;;;;;;;0.60;0.60;;;;;;;5.67;48.97;97594.59;29991;205;6005;-56
2021/04/23 00:38:20;;;;;;;0.60;0.60;;;;;;;5.65;49.08;97596.69;29991;228;6000;-55
2021/04/23 00:38:50;;;;;;;0.60;0.60;;;;;;;5.63;49.19;97605.03;29991;234;6005;-55
2021/04/23 00:39:21;;;;;;;0.60;0.60;;;;;;;5.61;49.16;97598.25;29991;287;6000;-57
2021/04/23 00:39:52;;;;;;;0.60;0.60;;;;;;;5.58;49.41;97604.94;29991;200;6004;-59
2021/04/23 00:40:30;;;;;;;0.60;0.60;;;;;;;5.59;49.43;97611.12;29990;249;6000;-56
2021/04/23 00:41:07;;;;;;;0.60;0.60;;;;;;;5.59;49.33;97597.66;29991;207;6004;-56
2021/04/23 00:41:37;;;;;;;0.50;0.50;;;;;;;5.57;49.34;97605.16;29990;298;6000;-55
2021/04/23 00:42:08;;;;;;;0.60;0.60;;;;;;;5.57;49.23;97602.47;29991;239;6004;-56
2021/04/23 00:42:42;;;;;;;0.60;0.60;;;;;;;5.53;49.08;97599.47;29990;208;6000;-56
2021/04/23 00:43:15;;;;;;;0.60;0.60;;;;;;;5.56;48.94;97595.47;29991;301;6004;-55
2021/04/23 00:43:56;;;;;;;0.60;0.60;;;;;;;5.55;48.49;97599.22;29991;217;6000;-55
2021/04/23 00:44:26;;;;;;;0.70;0.70;;;;;;;5.54;48.74;97601.13;29991;203;6004;-56
2021/04/23 00:44:57;;;;;;;0.60;0.60;;;;;;;5.49;49.05;97597.53;29990;216;6010;-56
2021/04/23 00:45:29;;;;;;;0.60;0.60;;;;;;;5.46;48.92;97603.38;29991;205;6005;-56
2021/04/23 00:46:00;;;;;;;0.60;0.60;;;;;;;5.44;48.89;97605.50;29991;240;6000;-56
2021/04/23 00:46:33;;;;;;;0.70;0.70;;;;;;;5.42;49.12;97607.63;29991;255;6005;-56
2021/04/23 00:47:04;;;;;;;0.60;0.60;;;;;;;5.39;48.89;97603.53;29990;205;6000;-57
2021/04/23 00:47:35;;;;;;;0.60;0.60;;;;;;;5.36;49.54;97599.44;29991;284;6004;-56
2021/04/23 00:48:09;;;;;;;0.60;0.60;;;;;;;5.35;50.01;97597.00;29991;221;6000;-56
2021/04/23 00:48:45;;;;;;;0.60;0.60;;;;;;;5.31;49.92;97596.66;29991;234;6004;-55
2021/04/23 00:49:16;;;;;;;0.70;0.70;;;;;;;5.29;50.73;97608.72;29991;367;6000;-56
2021/04/23 00:49:50;;;;;;;0.60;0.60;;;;;;;5.26;49.80;97598.44;29990;267;6004;-56
2021/04/23 00:50:43;;;;;;;0.60;0.60;;;;;;;5.27;49.88;97605.47;29991;227;6000;-55
2021/04/23 00:51:22;;;;;;;0.60;0.60;;;;;;;5.28;49.61;97597.16;29992;317;6004;-55
2021/04/23 00:51:56;;;;;;;0.60;0.60;;;;;;;5.27;50.07;97600.06;29992;196;6000;-56
2021/04/23 00:52:27;;;;;;;0.60;0.60;;;;;;;5.25;49.74;97603.00;29992;365;6005;-54
2021/04/23 00:52:58;;;;;;;0.60;0.60;;;;;;;5.24;49.87;97606.75;29992;251;6000;-55
2021/04/23 00:53:32;;;;;;;0.60;0.60;;;;;;;5.23;49.79;97602.44;29992;266;6005;-56
2021/04/23 00:54:03;;;;;;;0.60;0.60;;;;;;;5.24;49.91;97597.88;29992;202;6000;-56
2021/04/23 00:54:34;;;;;;;0.60;0.60;;;;;;;5.25;49.89;97604.88;29992;229;6005;-56
2021/04/23 00:55:07;;;;;;;0.60;0.60;;;;;;;5.25;49.78;97597.63;29991;328;6000;-55
2021/04/23 00:55:38;;;;;;;0.60;0.60;;;;;;;5.27;49.53;97602.75;29991;219;6004;-55
2021/04/23 00:56:12;;;;;;;0.60;0.60;;;;;;;5.28;49.49;97599.84;29992;202;6000;-55
2021/04/23 00:56:43;;;;;;;0.60;0.60;;;;;;;5.29;49.32;97598.78;29992;323;6004;-55
2021/04/23 00:57:14;;;;;;;0.60;0.60;;;;;;;5.30;49.22;97597.72;29992;384;6000;-55
2021/04/23 00:57:45;;;;;;;0.60;0.60;;;;;;;5.30;49.43;97603.09;29992;270;6004;-55
2021/04/23 00:58:19;;;;;;;0.60;0.60;;;;;;;5.31;49.72;97607.41;29991;227;6000;-55
2021/04/23 00:58:51;;;;;;;0.60;0.60;;;;;;;5.31;49.47;97601.22;29992;343;6004;-56
2021/04/23 00:59:23;;;;;;;0.60;0.60;;;;;;;5.31;49.40;97602.03;29992;315;6000;-56
2021/04/23 00:59:53;;;;;;;0.60;0.60;;;;;;;5.31;49.34;97602.03;29992;197;6004;-55
2021/04/23 01:00:25;;;;;;;0.70;0.70;;;;;;;5.32;49.27;97609.06;29991;302;6000;-55
2021/04/23 01:01:03;;;;;;;0.60;0.60;;;;;;;5.29;49.49;97598.78;29992;272;6005;-56
2021/04/23 01:01:48;;;;;;;0.60;0.60;;;;;;;5.29;49.42;97597.97;29992;293;6000;-55
2021/04/23 01:02:21;;;;;;;0.70;0.70;;;;;;;5.28;49.44;97596.31;29991;214;6016;-55
2021/04/23 01:02:52;;;;;;;0.70;0.70;;;;;;;5.28;49.50;97596.31;29992;249;6000;-55
2021/04/23 01:03:24;;;;;;;0.60;0.60;;;;;;;5.28;49.65;97601.72;29992;250;6004;-55
2021/04/23 01:03:59;;;;;;;0.60;0.60;;;;;;;5.26;49.66;97601.94;29992;205;6000;-56
2021/04/23 01:04:31;;;;;;;0.60;0.60;;;;;;;5.25;49.52;97600.31;29992;198;6004;-55
2021/04/23 01:05:02;;;;;;;0.60;0.60;;;;;;;5.25;49.30;97592.25;29992;346;6000;-55
2021/04/23 01:05:34;;;;;;;0.60;0.60;;;;;;;5.26;49.45;97593.88;29991;214;6004;-57
2021/04/23 01:06:10;;;;;;;0.60;0.60;;;;;;;5.28;49.53;97596.31;29992;254;6010;-55
2021/04/23 01:06:41;;;;;;;0.60;0.60;;;;;;;5.26;49.91;97593.06;29992;280;6004;-56
2021/04/23 01:07:12;;;;;;;0.60;0.60;;;;;;;5.25;50.34;97597.63;29992;373;6000;-55
2021/04/23 01:07:46;;;;;;;0.60;0.60;;;;;;;5.20;50.41;97594.84;29992;244;6005;-55
2021/04/23 01:08:25;;;;;;;0.60;0.60;;;;;;;5.19;50.19;97593.22;29992;281;6000;-55
2021/04/23 01:08:58;;;;;;;0.60;0.60;;;;;;;5.21;49.83;97596.47;29992;358;6005;-56
2021/04/23 01:09:31;;;;;;;0.60;0.60;;;;;;;5.22;49.68;97595.41;29991;316;6000;-55
2021/04/23 01:10:03;;;;;;;0.60;0.60;;;;;;;5.23;49.64;97593.53;29992;222;6004;-55
2021/04/23 01:10:34;;;;;;;0.60;0.60;;;;;;;5.24;49.45;97595.16;29992;210;6000;-55
2021/04/23 01:11:05;;;;;;;0.60;0.60;;;;;;;5.24;49.41;97596.00;29992;320;6004;-56
2021/04/23 01:11:36;;;;;;;0.60;0.60;;;;;;;5.25;49.41;97597.63;29992;233;6000;-56
2021/04/23 01:12:07;;;;;;;0.60;0.60;;;;;;;5.26;49.32;97598.44;29992;325;6004;-56
2021/04/23 01:12:38;;;;;;;0.60;0.60;;;;;;;5.23;48.99;97593.53;29992;261;6000;-55
2021/04/23 01:13:09;;;;;;;0.60;0.60;;;;;;;5.24;49.21;97604.06;29992;265;6004;-55
2021/04/23 01:13:41;;;;;;;0.60;0.60;;;;;;;5.22;49.47;97602.66;29992;331;6000;-55
2021/04/23 01:14:12;;;;;;;0.60;0.60;;;;;;;5.14;50.43;97603.06;29991;304;6004;-56
2021/04/23 01:14:43;;;;;;;0.60;0.60;;;;;;;5.09;50.17;97595.72;29992;370;6000;-56
2021/04/23 01:15:14;;;;;;;0.60;0.60;;;;;;;5.07;50.33;97602.41;29992;230;6005;-55
2021/04/23 01:15:45;;;;;;;0.60;0.60;;;;;;;5.02;51.73;97605.81;29992;355;6000;-56
2021/04/23 01:16:19;;;;;;;0.60;0.60;;;;;;;4.97;51.29;97605.69;29992;234;6005;-56
2021/04/23 01:16:50;;;;;;;0.60;0.60;;;;;;;4.95;51.00;97602.44;29991;353;6000;-56
2021/04/23 01:17:21;;;;;;;0.70;0.70;;;;;;;4.90;51.23;97599.63;29991;208;6005;-56
2021/04/23 01:17:52;;;;;;;0.60;0.60;;;;;;;4.87;50.87;97602.81;29992;240;6000;-55
2021/04/23 01:18:22;;;;;;;0.60;0.60;;;;;;;4.88;50.78;97601.75;29991;339;6004;-55
2021/04/23 01:18:54;;;;;;;0.60;0.60;;;;;;;4.89;50.77;97598.00;29992;214;6000;-55
2021/04/23 01:19:26;;;;;;;0.60;0.60;;;;;;;4.91;50.55;97595.91;29992;292;6004;-55
2021/04/23 01:19:57;;;;;;;0.60;0.60;;;;;;;4.92;50.50;97595.66;29992;198;6000;-56
2021/04/23 01:20:28;;;;;;;0.60;0.60;;;;;;;4.93;50.39;97599.97;29992;290;6004;-56
2021/04/23 01:21:14;;;;;;;0.60;0.60;;;;;;;4.93;50.59;97599.16;29992;196;6000;-55
2021/04/23 01:21:45;;;;;;;0.60;0.60;;;;;;;4.88;50.89;97597.19;29991;202;6004;-55
2021/04/23 01:22:16;;;;;;;0.60;0.60;;;;;;;4.85;50.76;97596.88;29992;258;6000;-56
2021/04/23 01:22:47;;;;;;;0.60;0.60;;;;;;;4.85;50.76;97602.25;29992;359;6005;-56
2021/04/23 01:23:18;;;;;;;0.60;0.60;;;;;;;4.87;50.44;97600.13;29992;254;5990;-56
2021/04/23 01:23:51;;;;;;;0.60;0.60;;;;;;;4.89;50.46;97592.63;29992;348;6005;-56
2021/04/23 01:24:22;;;;;;;0.60;0.60;;;;;;;4.90;50.19;97594.25;29992;331;6000;-55
2021/04/23 01:24:53;;;;;;;0.60;0.60;;;;;;;4.91;50.09;97585.97;29992;223;6005;-55
2021/04/23 01:25:24;;;;;;;0.60;0.60;;;;;;;4.92;50.27;97587.59;29992;288;6000;-55
2021/04/23 01:25:56;;;;;;;0.60;0.60;;;;;;;4.94;50.23;97590.03;29991;254;6004;-55
2021/04/23 01:26:30;;;;;;;0.70;0.70;;;;;;;4.95;50.00;97587.13;29992;302;6000;-55
2021/04/23 01:27:01;;;;;;;0.70;0.70;;;;;;;4.97;49.72;97594.94;29991;198;6004;-55
2021/04/23 01:27:32;;;;;;;0.60;0.60;;;;;;;4.97;49.86;97594.94;29992;250;6000;-55
2021/04/23 01:28:03;;;;;;;0.60;0.60;;;;;;;4.96;49.73;97590.63;29992;202;6004;-55
2021/04/23 01:28:35;;;;;;;0.60;0.60;;;;;;;5.00;49.55;97589.09;29992;201;6000;-55
2021/04/23 01:29:07;;;;;;;0.60;0.60;;;;;;;5.00;49.47;97591.78;29992;226;6004;-55
2021/04/23 01:29:38;;;;;;;0.68;0.68;;;;;;;5.02;49.39;97592.34;29992;205;6011;-55
2021/04/23 01:30:13;;;;;;;0.60;0.60;;;;;;;5.03;49.47;97588.62;29991;263;6005;-56
2021/04/23 01:30:44;;;;;;;0.70;0.70;;;;;;;5.04;49.28;97592.94;29992;278;6000;-55
2021/04/23 01:31:17;;;;;;;0.60;0.60;;;;;;;5.06;49.31;97593.50;29992;206;6005;-56
2021/04/23 01:31:52;;;;;;;0.60;0.60;;;;;;;5.05;49.18;97583.81;29992;349;6000;-56
2021/04/23 01:32:22;;;;;;;0.70;0.70;;;;;;;5.05;49.25;97586.50;29992;203;6004;-55
2021/04/23 01:32:53;;;;;;;0.70;0.70;;;;;;;5.05;49.51;97587.31;29990;356;6000;-55
2021/04/23 01:33:25;;;;;;;0.60;0.60;;;;;;;5.06;49.69;97588.12;29992;300;6004;-55
2021/04/23 01:34:07;;;;;;;1.55;1.45;;;;;;;5.07;49.67;97586.25;29992;308;6000;-56
2021/04/23 01:34:41;;;;;;;0.70;0.70;;;;;;;5.04;49.74;97580.31;29992;259;6004;-55
2021/04/23 01:35:17;;;;;;;0.60;0.60;;;;;;;5.04;49.97;97587.56;29992;202;6000;-54
2021/04/23 01:35:48;;;;;;;0.60;0.60;;;;;;;5.04;50.07;97593.75;29991;204;6004;-54
2021/04/23 01:36:19;;;;;;;0.60;0.60;;;;;;;5.04;49.90;97584.87;29991;287;6000;-55
2021/04/23 01:36:52;;;;;;;0.60;0.60;;;;;;;5.05;49.95;97591.87;29992;345;6005;-55
2021/04/23 01:37:22;;;;;;;0.60;0.60;;;;;;;5.03;50.27;97589.44;29992;227;6000;-55
2021/04/23 01:37:53;;;;;;;0.60;0.60;;;;;;;5.00;50.15;97592.59;29991;320;6005;-54
2021/04/23 01:38:24;;;;;;;0.60;0.60;;;;;;;4.98;50.26;97592.03;29991;199;6000;-54
2021/04/23 01:38:55;;;;;;;0.60;0.60;;;;;;;4.98;50.29;97586.63;29992;290;6005;-56
2021/04/23 01:39:28;;;;;;;0.60;0.60;;;;;;;4.98;50.38;97585.81;29992;239;6000;-56
2021/04/23 01:39:59;;;;;;;0.60;0.60;;;;;;;4.99;50.06;97582.06;29991;339;6004;-55
2021/04/23 01:40:30;;;;;;;0.60;0.60;;;;;;;4.98;50.18;97581.25;29992;225;6000;-56
2021/04/23 01:41:01;;;;;;;0.60;0.60;;;;;;;5.00;50.19;97589.09;29991;245;6004;-56
2021/04/23 01:41:31;;;;;;;0.60;0.60;;;;;;;4.99;50.07;97587.44;29992;332;6000;-54
2021/04/23 01:42:03;;;;;;;0.60;0.60;;;;;;;5.00;50.19;97594.47;29992;351;6004;-54
2021/04/23 01:42:34;;;;;;;0.60;0.60;;;;;;;4.99;50.26;97593.66;29991;328;6000;-54
2021/04/23 01:43:04;;;;;;;0.60;0.60;;;;;;;5.01;50.22;97590.72;29992;197;6004;-55
2021/04/23 01:43:35;;;;;;;0.60;0.60;;;;;;;5.02;50.20;97592.34;29991;289;6000;-55
2021/04/23 01:44:07;;;;;;;0.60;0.60;;;;;;;5.00;50.01;97594.47;29992;253;6004;-54
2021/04/23 01:44:39;;;;;;;0.60;0.60;;;;;;;4.99;50.36;97587.44;29992;203;6000;-55
2021/04/23 01:45:12;;;;;;;0.60;0.60;;;;;;;4.97;50.17;97584.19;29992;307;6005;-55
2021/04/23 01:45:43;;;;;;;0.60;0.60;;;;;;;4.96;50.29;97594.13;29992;197;6000;-56
2021/04/23 01:46:14;;;;;;;0.60;0.60;;;;;;;4.98;50.29;97593.88;29991;287;6005;-55
2021/04/23 01:46:45;;;;;;;0.60;0.60;;;;;;;4.98;50.23;97593.88;29992;202;6000;-56
2021/04/23 01:47:15;;;;;;;1.67;1.67;;;;;;;4.97;50.19;97594.94;29992;226;6004;-54
2021/04/23 01:47:46;;;;;;;0.60;0.60;;;;;;;4.99;50.26;97595.53;29991;198;6000;-54
2021/04/23 01:48:17;;;;;;;0.70;0.70;;;;;;;4.97;50.29;97594.94;29991;289;6004;-55
2021/04/23 01:48:48;;;;;;;0.70;0.70;;;;;;;4.95;50.61;97597.88;29992;287;6000;-54
2021/04/23 01:49:22;;;;;;;0.60;0.60;;;;;;;4.93;50.49;97604.53;29992;209;6004;-55
2021/04/23 01:49:54;;;;;;;0.60;0.60;;;;;;;4.92;50.66;97609.09;29991;214;6000;-55
2021/04/23 01:50:25;;;;;;;0.70;0.70;;;;;;;4.92;50.65;97600.22;29991;212;6004;-55
2021/04/23 01:50:56;;;;;;;0.60;0.60;;;;;;;4.91;50.65;97602.09;29992;303;6000;-55
2021/04/23 01:51:28;;;;;;;0.70;0.70;;;;;;;4.89;51.18;97608.75;29991;202;6004;-55
2021/04/23 01:52:14;;;;;;;0.60;0.60;;;;;;;4.87;50.98;97605.50;29992;219;5197;-54
2021/04/23 01:52:47;;;;;;;0.70;0.70;;;;;;;4.87;51.14;97610.88;29992;221;5202;-55
2021/04/23 01:53:19;;;;;;;0.60;0.60;;;;;;;4.87;51.26;97597.44;29992;361;5199;-55
2021/04/23 01:53:49;;;;;;;0.60;0.60;;;;;;;4.87;51.16;97600.13;29992;213;5203;-57
2021/04/23 01:54:21;;;;;;;0.60;0.60;;;;;;;4.87;51.15;97610.88;29992;289;5199;-55
2021/04/23 01:54:51;;;;;;;0.62;0.62;;;;;;;4.86;51.04;97609.25;29992;308;5207;-55
2021/04/23 01:55:23;;;;;;;0.60;0.60;;;;;;;4.86;51.19;97611.94;29992;262;5197;-55
2021/04/23 01:55:54;;;;;;;0.60;0.60;;;;;;;4.85;51.11;97607.63;29991;252;5207;-55
2021/04/23 01:56:25;;;;;;;0.60;0.60;;;;;;;4.87;51.29;97610.88;29991;338;7000;-54
2021/04/23 01:56:56;;;;;;;0.60;0.60;;;;;;;4.88;51.26;97605.25;29992;366;5201;-55
2021/04/23 01:57:27;;;;;;;0.60;0.60;;;;;;;4.89;51.12;97609.59;29992;263;5199;-56
2021/04/23 01:57:57;;;;;;;0.60;0.60;;;;;;;4.90;50.94;97610.41;29991;213;7004;-56
2021/04/23 01:58:30;;;;;;;0.60;0.60;;;;;;;4.87;50.86;97605.50;29991;279;7000;-54
2021/04/23 01:59:01;;;;;;;0.60;0.60;;;;;;;4.90;51.12;97610.41;29991;222;7004;-56
2021/04/23 01:59:36;;;;;;;0.60;0.60;;;;;;;4.88;50.99;97605.25;29990;288;7000;-56
2021/04/23 02:00:23;;;;;;;0.60;0.60;;;;;;;4.88;51.01;97604.44;29991;322;7005;-54
2021/04/23 02:00:55;;;;;;;0.60;0.60;;;;;;;4.85;51.30;97607.63;29989;238;7000;-56
2021/04/23 02:01:26;;;;;;;0.60;0.60;;;;;;;4.82;51.35;97608.09;29991;197;6007;-55
2021/04/23 02:02:00;;;;;;;0.60;0.60;;;;;;;4.79;51.43;97613.97;29991;266;6000;-54
2021/04/23 02:02:30;;;;;;;0.60;0.60;;;;;;;4.77;51.50;97608.00;29991;196;6004;-55
2021/04/23 02:03:06;;;;;;;0.60;0.60;;;;;;;4.79;51.92;97608.59;29989;281;7000;-55
2021/04/23 02:03:37;;;;;;;0.60;0.60;;;;;;;4.79;52.01;97608.59;29989;223;7004;-55
2021/04/23 02:04:10;;;;;;;0.60;0.60;;;;;;;4.79;51.82;97608.59;29991;326;6000;-56
2021/04/23 02:04:45;;;;;;;0.60;0.60;;;;;;;4.80;52.01;97611.03;29990;196;6004;-55
2021/04/23 02:05:17;;;;;;;0.60;0.60;;;;;;;4.79;51.90;97613.97;29991;218;6000;-56
2021/04/23 02:05:49;;;;;;;0.70;0.70;;;;;;;4.78;51.98;97618.53;29990;213;6004;-55
2021/04/23 02:06:20;;;;;;;0.70;0.70;;;;;;;4.78;51.61;97615.00;29991;306;6000;-54
2021/04/23 02:06:52;;;;;;;0.60;0.60;;;;;;;4.78;51.63;97617.69;29991;233;6004;-56
2021/04/23 02:07:22;;;;;;;0.60;0.60;;;;;;;4.76;51.60;97609.06;29991;307;6000;-54
2021/04/23 02:07:54;;;;;;;0.60;0.60;;;;;;;4.74;51.95;97606.59;29989;222;7005;-55
2021/04/23 02:08:28;;;;;;;0.60;0.60;;;;;;;4.74;51.87;97611.16;29991;219;6000;-54
2021/04/23 02:08:59;;;;;;;0.60;0.60;;;;;;;4.72;51.98;97609.53;29991;198;6005;-55
2021/04/23 02:09:30;;;;;;;0.60;0.60;;;;;;;4.71;51.71;97612.44;29991;256;6000;-55
2021/04/23 02:10:00;;;;;;;0.60;0.60;;;;;;;4.68;52.13;97612.94;29991;221;6004;-54
2021/04/23 02:10:39;;;;;;;0.60;0.60;;;;;;;4.73;52.32;97618.41;29991;236;6000;-54
2021/04/23 02:11:13;;;;;;;0.60;0.60;;;;;;;4.69;52.41;97618.06;29991;217;6004;-55
2021/04/23 02:11:47;;;;;;;0.60;0.60;;;;;;;4.69;52.26;97623.44;29991;254;6000;-56
2021/04/23 02:12:18;;;;;;;0.60;0.60;;;;;;;4.70;52.37;97622.37;29991;331;6004;-55
2021/04/23 02:12:49;;;;;;;0.70;0.70;;;;;;;4.69;52.28;97610.00;29988;207;7000;-56
2021/04/23 02:13:23;;;;;;;0.70;0.70;;;;;;;4.70;52.67;97627.75;29991;255;6004;-55
2021/04/23 02:13:56;;;;;;;0.60;0.60;;;;;;;4.68;52.48;97613.75;29991;216;6000;-55
2021/04/23 02:14:27;;;;;;;0.65;0.65;;;;;;;4.68;52.62;97621.00;29991;296;6005;-57
2021/04/23 02:14:58;;;;;;;0.70;0.70;;;;;;;4.66;52.73;97618.53;29991;197;6000;-55
2021/04/23 02:15:29;;;;;;;0.70;0.70;;;;;;;4.68;52.73;97613.75;29991;322;6005;-55
2021/04/23 02:16:00;;;;;;;0.70;0.70;;;;;;;4.67;52.50;97606.72;29991;206;6000;-56
2021/04/23 02:16:31;;;;;;;0.70;0.70;;;;;;;4.66;52.56;97607.78;29991;206;6005;-55
2021/04/23 02:17:05;;;;;;;0.70;0.70;;;;;;;4.64;52.39;97617.97;29991;206;6000;-55
2021/04/23 02:17:36;;;;;;;0.70;0.70;;;;;;;4.60;52.65;97611.41;29991;216;6004;-56
2021/04/23 02:18:07;;;;;;;0.70;0.70;;;;;;;4.60;52.61;97610.59;29989;334;7000;-56
2021/04/23 02:18:38;;;;;;;0.60;0.60;;;;;;;4.59;52.76;97615.16;29991;197;6004;-56
2021/04/23 02:19:11;;;;;;;0.70;0.70;;;;;;;4.59;52.63;97614.34;29991;202;6000;-56
2021/04/23 02:19:41;;;;;;;0.60;0.60;;;;;;;4.57;52.71;97617.25;29991;247;6004;-55
2021/04/23 02:20:20;;;;;;;0.60;0.60;;;;;;;4.58;52.66;97612.72;29991;209;6000;-56
2021/04/23 02:20:51;;;;;;;0.60;0.60;;;;;;;4.60;52.70;97613.28;29991;266;6004;-56
2021/04/23 02:21:23;;;;;;;0.60;0.60;;;;;;;4.60;52.61;97616.78;29990;337;6000;-56
2021/04/23 02:21:53;;;;;;;0.60;0.60;;;;;;;4.61;52.52;97618.44;29991;219;6005;-55
2021/04/23 02:22:24;;;;;;;0.60;0.60;;;;;;;4.63;52.42;97619.00;29988;304;7000;-55
2021/04/23 02:22:59;;;;;;;0.60;0.60;;;;;;;4.63;52.20;97610.94;29991;214;6005;-56
2021/04/23 02:23:30;;;;;;;0.60;0.60;;;;;;;4.65;52.15;97618.78;29991;245;6000;-56
2021/04/23 02:24:02;;;;;;;0.60;0.60;;;;;;;4.65;52.20;97608.84;29991;246;6004;-56
2021/04/23 02:24:32;;;;;;;0.70;0.70;;;;;;;4.65;52.23;97619.59;29991;220;6000;-55
2021/04/23 02:25:05;;;;;;;0.70;0.70;;;;;;;4.66;52.12;97615.84;29991;346;6004;-56
2021/04/23 02:25:37;;;;;;;0.60;0.60;;;;;;;4.66;52.00;97615.84;29991;218;6000;-55
2021/04/23 02:26:08;;;;;;;0.60;0.60;;;;;;;4.65;51.74;97614.22;29991;255;6004;-56
2021/04/23 02:26:41;;;;;;;0.65;0.65;;;;;;;4.68;51.53;97613.75;29990;202;6000;-56
2021/04/23 02:27:12;;;;;;;0.60;0.60;;;;;;;4.70;51.40;97610.81;29991;212;6004;-55
2021/04/23 02:27:43;;;;;;;0.60;0.60;;;;;;;4.71;51.23;97615.97;29989;276;7000;-54
2021/04/23 02:28:16;;;;;;;0.60;0.60;;;;;;;4.71;51.16;97610.59;29991;306;6004;-56
2021/04/23 02:28:52;;;;;;;0.60;0.60;;;;;;;4.69;51.54;97610.00;29991;237;6000;-55
2021/04/23 02:29:23;;;;;;;0.70;0.70;;;;;;;4.64;51.74;97612.59;29991;246;6005;-56
2021/04/23 02:29:54;;;;;;;0.60;0.60;;;;;;;4.64;51.95;97623.34;29989;207;6992;-55
2021/04/23 02:30:29;;;;;;;0.70;0.70;;;;;;;4.63;52.26;97621.69;29991;305;6005;-55
2021/04/23 02:31:08;;;;;;;0.60;0.60;;;;;;;4.61;52.21;97615.75;29989;235;6990;-54
2021/04/23 02:31:41;;;;;;;0.60;0.60;;;;;;;4.64;52.05;97617.97;29991;325;6004;-55
2021/04/23 02:32:15;;;;;;;0.68;0.68;;;;;;;4.63;52.07;97620.88;29988;328;7000;-55
2021/04/23 02:32:46;;;;;;;0.60;0.60;;;;;;;4.61;52.25;97623.81;29990;202;6004;-55
2021/04/23 02:33:20;;;;;;;0.60;0.60;;;;;;;4.58;52.23;97618.09;29990;286;6992;-55
2021/04/23 02:33:54;;;;;;;0.60;0.60;;;;;;;4.60;52.20;97616.78;29991;306;6004;-55
2021/04/23 02:34:26;;;;;;;0.60;0.60;;;;;;;4.61;52.23;97621.13;29991;202;6000;-56
2021/04/23 02:34:57;;;;;;;0.60;0.60;;;;;;;4.62;52.09;97620.06;29991;204;6004;-55
2021/04/23 02:35:27;;;;;;;0.60;0.60;;;;;;;4.62;52.07;97619.25;29991;323;6000;-55
2021/04/23 02:36:00;;;;;;;0.60;0.60;;;;;;;4.61;52.13;97618.44;29991;242;6004;-55
2021/04/23 02:36:32;;;;;;;0.60;0.60;;;;;;;4.61;52.26;97621.13;29991;284;6000;-55
2021/04/23 02:37:03;;;;;;;0.60;0.60;;;;;;;4.58;52.30;97624.28;29989;322;7005;-56
2021/04/23 02:37:34;;;;;;;0.60;0.60;;;;;;;4.56;52.33;97625.56;29990;211;6000;-55
2021/04/23 02:38:06;;;;;;;0.60;0.60;;;;;;;4.53;52.40;97624.16;29991;330;6009;-55
2021/04/23 02:38:37;;;;;;;0.60;0.60;;;;;;;4.52;52.48;97624.41;29991;256;6000;-55
2021/04/23 02:39:12;;;;;;;0.60;0.60;;;;;;;4.51;52.75;97623.59;29991;363;6004;-55
2021/04/23 02:39:42;;;;;;;0.62;0.62;;;;;;;4.51;52.88;97628.97;29991;287;6000;-55
2021/04/23 02:40:16;;;;;;;0.68;0.68;;;;;;;4.54;52.92;97627.66;29991;215;6004;-56
2021/04/23 02:40:47;;;;;;;0.60;0.60;;;;;;;4.53;52.47;97626.84;29991;204;6000;-54